createdAt,value
2023-05-06T00:01:00.843Z,11.05
2023-05-06T00:03:28.217Z,11.00
2023-05-06T00:05:54.828Z,10.93
2023-05-06T00:08:21.606Z,10.85
2023-05-06T00:10:48.125Z,10.81
2023-05-06T00:13:14.688Z,10.80
2023-05-06T00:15:41.142Z,10.79
2023-05-06T00:18:07.753Z,10.79
2023-05-06T00:20:34.216Z,10.78
2023-05-06T00:23:01.101Z,10.80
2023-05-06T00:25:27.676Z,10.87
2023-05-06T00:27:54.158Z,10.91
2023-05-06T00:30:20.687Z,10.97
2023-05-06T00:32:47.252Z,11.00
2023-05-06T00:35:13.777Z,11.03
2023-05-06T00:37:40.729Z,11.03
2023-05-06T00:40:08.076Z,11.02
2023-05-06T00:42:34.514Z,11.02
2023-05-06T00:45:01.206Z,11.01
2023-05-06T00:47:27.885Z,11.01
2023-05-06T00:49:54.398Z,10.95
2023-05-06T00:52:21.119Z,10.85
2023-05-06T00:54:47.690Z,10.77
2023-05-06T00:57:14.278Z,10.71
2023-05-06T00:59:40.805Z,10.70
2023-05-06T01:02:07.267Z,10.74
2023-05-06T01:04:33.836Z,10.75
2023-05-06T01:07:26.661Z,10.73
2023-05-06T01:10:00.757Z,10.73
2023-05-06T01:12:32.465Z,10.72
2023-05-06T01:15:10.242Z,10.70
2023-05-06T01:17:42.656Z,10.67
2023-05-06T01:20:15.322Z,10.67
2023-05-06T01:22:42.201Z,10.64
2023-05-06T01:25:19.250Z,10.65
2023-05-06T01:27:45.692Z,10.65
2023-05-06T01:30:14.012Z,10.63
2023-05-06T01:32:59.665Z,10.54
2023-05-06T01:35:35.185Z,10.49
2023-05-06T01:38:34.993Z,10.46
2023-05-06T01:41:02.737Z,10.42
2023-05-06T01:43:34.876Z,10.38
2023-05-06T01:46:02.752Z,10.37
2023-05-06T01:48:33.675Z,10.34
2023-05-06T01:51:00.164Z,10.32
2023-05-06T01:53:26.732Z,10.32
2023-05-06T01:55:53.202Z,10.30
2023-05-06T01:58:19.619Z,10.28
2023-05-06T02:00:46.090Z,10.26
2023-05-06T02:03:12.980Z,10.24
2023-05-06T02:05:39.496Z,10.19
2023-05-06T02:08:05.950Z,10.17
2023-05-06T02:10:32.370Z,10.13
2023-05-06T02:12:58.951Z,10.10
2023-05-06T02:15:25.449Z,10.10
2023-05-06T02:17:52.085Z,10.11
2023-05-06T02:20:18.627Z,10.09
2023-05-06T02:22:45.061Z,10.05
2023-05-06T02:25:11.657Z,10.05
2023-05-06T02:27:38.300Z,10.02
2023-05-06T02:30:06.249Z,10.01
2023-05-06T02:32:32.856Z,9.98
2023-05-06T02:34:59.318Z,9.95
2023-05-06T02:37:25.849Z,9.92
2023-05-06T02:39:52.298Z,9.91
2023-05-06T02:42:18.888Z,9.89
2023-05-06T02:44:45.405Z,9.86
2023-05-06T02:47:11.853Z,9.86
2023-05-06T02:49:38.415Z,9.84
2023-05-06T02:52:05.225Z,9.81
2023-05-06T02:54:31.756Z,9.77
2023-05-06T02:56:58.269Z,9.71
2023-05-06T02:59:24.732Z,9.68
2023-05-06T03:01:51.130Z,9.68
2023-05-06T03:04:17.699Z,9.66
2023-05-06T03:06:44.217Z,9.63
2023-05-06T03:09:10.633Z,9.57
2023-05-06T03:11:37.038Z,9.53
2023-05-06T03:14:03.509Z,9.48
2023-05-06T03:16:29.990Z,9.44
2023-05-06T03:18:56.434Z,9.42
2023-05-06T03:21:22.948Z,9.45
2023-05-06T03:23:49.422Z,9.47
2023-05-06T03:26:15.887Z,9.46
2023-05-06T03:28:44.565Z,9.41
2023-05-06T03:31:11.243Z,9.36
2023-05-06T03:33:37.797Z,9.35
2023-05-06T03:36:05.057Z,9.33
2023-05-06T03:38:31.530Z,9.30
2023-05-06T03:40:57.984Z,9.31
2023-05-06T03:43:24.434Z,9.31
2023-05-06T03:45:50.982Z,9.30
2023-05-06T03:48:17.496Z,9.27
2023-05-06T03:50:44.057Z,9.26
2023-05-06T03:53:10.609Z,9.24
2023-05-06T03:55:37.267Z,9.25
2023-05-06T03:58:03.726Z,9.23
2023-05-06T04:00:30.126Z,9.23
2023-05-06T04:02:56.655Z,9.23
2023-05-06T04:05:23.209Z,9.25
2023-05-06T04:07:49.733Z,9.29
2023-05-06T04:10:16.284Z,9.33
2023-05-06T04:12:42.736Z,9.33
2023-05-06T04:15:10.616Z,9.31
2023-05-06T04:17:37.376Z,9.26
2023-05-06T04:20:04.764Z,9.22
2023-05-06T04:22:31.578Z,9.16
2023-05-06T04:25:00.711Z,9.16
2023-05-06T04:27:29.720Z,9.15
2023-05-06T04:29:56.806Z,9.18
2023-05-06T04:32:25.343Z,9.22
2023-05-06T04:34:53.572Z,9.19
2023-05-06T04:37:21.089Z,9.21
2023-05-06T04:39:47.600Z,9.23
2023-05-06T04:42:14.500Z,9.22
2023-05-06T04:44:41.950Z,9.25
2023-05-06T04:47:08.382Z,9.32
2023-05-06T04:49:35.289Z,9.35
2023-05-06T04:52:01.991Z,9.39
2023-05-06T04:54:28.583Z,9.47
2023-05-06T04:56:55.052Z,9.51
2023-05-06T04:59:21.571Z,9.60
2023-05-06T05:01:48.234Z,9.67
2023-05-06T05:04:14.670Z,9.76
2023-05-06T05:06:41.141Z,9.84
2023-05-06T05:09:07.632Z,9.92
2023-05-06T05:11:37.474Z,9.97
2023-05-06T05:14:04.365Z,10.00
2023-05-06T05:16:30.973Z,10.02
2023-05-06T05:18:57.476Z,10.08
2023-05-06T05:21:23.950Z,10.16
2023-05-06T05:23:50.476Z,10.30
2023-05-06T05:26:16.957Z,10.41
2023-05-06T05:28:44.650Z,10.52
2023-05-06T05:31:11.265Z,10.64
2023-05-06T05:33:37.757Z,10.82
2023-05-06T05:36:04.884Z,10.99
2023-05-06T05:38:31.409Z,11.19
2023-05-06T05:40:57.950Z,11.27
2023-05-06T05:43:25.984Z,11.34
2023-05-06T05:45:52.584Z,11.47
2023-05-06T05:48:19.031Z,11.57
2023-05-06T05:50:46.166Z,11.63
2023-05-06T05:53:12.587Z,11.68
2023-05-06T05:55:39.027Z,11.74
2023-05-06T05:58:05.495Z,11.80
2023-05-06T06:00:32.201Z,11.87
2023-05-06T06:02:58.773Z,11.92
2023-05-06T06:05:25.429Z,11.94
2023-05-06T06:07:51.899Z,11.95
2023-05-06T06:10:18.429Z,12.01
2023-05-06T06:12:44.919Z,12.04
2023-05-06T06:15:11.719Z,12.09
2023-05-06T06:17:38.522Z,12.12
2023-05-06T06:20:05.969Z,12.18
2023-05-06T06:22:32.481Z,12.23
2023-05-06T06:24:59.045Z,12.30
2023-05-06T06:27:25.591Z,12.39
2023-05-06T06:29:52.078Z,12.38
2023-05-06T06:32:19.582Z,12.47
2023-05-06T06:34:46.084Z,12.56
2023-05-06T06:37:12.823Z,12.58
2023-05-06T06:39:39.265Z,12.66
2023-05-06T06:42:06.962Z,12.75
2023-05-06T06:44:36.853Z,12.80
2023-05-06T06:47:03.332Z,12.85
2023-05-06T06:49:31.223Z,12.92
2023-05-06T06:51:57.755Z,12.90
2023-05-06T06:54:24.424Z,12.93
2023-05-06T06:56:55.948Z,12.94
2023-05-06T06:59:22.431Z,12.95
2023-05-06T07:01:48.868Z,13.00
2023-05-06T07:04:15.315Z,13.04
2023-05-06T07:06:41.804Z,13.02
2023-05-06T07:09:08.565Z,13.05
2023-05-06T07:11:35.024Z,13.14
2023-05-06T07:14:01.558Z,13.26
2023-05-06T07:16:28.112Z,13.42
2023-05-06T07:18:54.619Z,13.52
2023-05-06T07:21:21.134Z,13.65
2023-05-06T07:23:47.634Z,13.76
2023-05-06T07:26:14.104Z,14.04
2023-05-06T07:28:40.876Z,14.08
2023-05-06T07:31:07.387Z,14.09
2023-05-06T07:33:33.873Z,14.08
2023-05-06T07:36:00.446Z,14.14
2023-05-06T07:38:27.319Z,14.21
2023-05-06T07:40:53.884Z,14.32
2023-05-06T07:43:22.437Z,14.36
2023-05-06T07:45:49.033Z,14.34
2023-05-06T07:48:17.000Z,14.40
2023-05-06T07:50:45.115Z,14.43
2023-05-06T07:53:11.832Z,14.47
2023-05-06T07:55:38.303Z,14.59
2023-05-06T07:58:04.718Z,14.74
2023-05-06T08:00:31.257Z,14.94
2023-05-06T08:02:57.850Z,15.13
2023-05-06T08:05:24.515Z,15.20
2023-05-06T08:07:51.539Z,15.16
2023-05-06T08:10:18.638Z,15.09
2023-05-06T08:12:45.222Z,15.14
2023-05-06T08:15:12.286Z,15.23
2023-05-06T08:17:38.990Z,15.14
2023-05-06T08:20:07.129Z,15.26
2023-05-06T08:22:33.542Z,15.48
2023-05-06T08:25:01.005Z,15.59
2023-05-06T08:27:27.532Z,15.68
2023-05-06T08:29:53.959Z,15.79
2023-05-06T08:32:20.434Z,16.00
2023-05-06T08:34:46.890Z,16.17
2023-05-06T08:37:13.394Z,16.29
2023-05-06T08:39:39.858Z,16.42
2023-05-06T08:42:10.062Z,16.50
2023-05-06T08:44:36.716Z,16.60
2023-05-06T08:47:03.667Z,16.78
2023-05-06T08:49:30.229Z,16.86
2023-05-06T08:51:58.117Z,16.90
2023-05-06T08:54:26.514Z,16.98
2023-05-06T08:56:55.193Z,17.06
2023-05-06T08:59:24.950Z,17.08
2023-05-06T09:01:52.211Z,17.03
2023-05-06T09:04:19.368Z,17.07
2023-05-06T09:06:46.192Z,17.15
2023-05-06T09:09:14.733Z,17.16
2023-05-06T09:11:41.252Z,17.14
2023-05-06T09:14:13.122Z,17.13
2023-05-06T09:16:42.051Z,17.13
2023-05-06T09:19:08.683Z,17.07
2023-05-06T09:21:39.289Z,16.95
2023-05-06T09:24:07.516Z,17.05
2023-05-06T09:26:36.071Z,17.05
2023-05-06T09:29:03.642Z,17.07
2023-05-06T09:31:30.918Z,17.11
2023-05-06T09:33:58.980Z,17.07
2023-05-06T09:36:27.454Z,17.12
2023-05-06T09:38:55.833Z,17.20
2023-05-06T09:41:27.051Z,17.29
2023-05-06T09:43:54.399Z,17.27
2023-05-06T09:46:22.424Z,17.33
2023-05-06T09:48:53.857Z,17.44
2023-05-06T09:51:21.072Z,17.48
2023-05-06T09:53:47.851Z,17.52
2023-05-06T09:56:16.288Z,17.36
2023-05-06T09:58:43.561Z,17.36
2023-05-06T10:01:17.066Z,17.43
2023-05-06T10:03:51.767Z,17.55
2023-05-06T10:06:20.134Z,17.76
2023-05-06T10:08:48.150Z,17.86
2023-05-06T10:11:15.161Z,17.83
2023-05-06T10:13:42.690Z,17.96
2023-05-06T10:16:10.791Z,18.09
2023-05-06T10:18:38.901Z,18.13
2023-05-06T10:21:09.123Z,18.33
2023-05-06T10:24:11.362Z,18.47
2023-05-06T10:26:38.983Z,18.54
2023-05-06T10:29:09.819Z,18.56
2023-05-06T10:31:43.805Z,18.72
2023-05-06T10:34:10.939Z,18.79
2023-05-06T10:36:40.097Z,18.88
2023-05-06T10:39:10.220Z,19.01
2023-05-06T10:41:37.510Z,19.08
2023-05-06T10:44:04.120Z,19.09
2023-05-06T10:46:31.147Z,19.16
2023-05-06T10:49:06.731Z,19.38
2023-05-06T10:51:34.656Z,19.31
2023-05-06T10:54:06.732Z,19.31
2023-05-06T10:56:59.882Z,19.58
2023-05-06T10:59:31.375Z,19.84
2023-05-06T11:02:04.530Z,19.93
2023-05-06T11:04:31.636Z,19.95
2023-05-06T11:07:15.657Z,20.12
2023-05-06T11:09:59.361Z,20.23
2023-05-06T11:12:44.778Z,20.28
2023-05-06T11:15:43.800Z,20.33
2023-05-06T11:18:26.393Z,20.11
2023-05-06T11:21:04.883Z,20.03
2023-05-06T11:23:46.908Z,20.21
2023-05-06T11:26:13.825Z,20.21
2023-05-06T11:28:43.830Z,20.39
2023-05-06T11:31:12.553Z,20.11
2023-05-06T11:33:46.441Z,20.06
2023-05-06T11:36:18.273Z,20.23
2023-05-06T11:38:49.544Z,20.43
2023-05-06T11:41:17.167Z,20.81
2023-05-06T11:43:47.567Z,21.06
2023-05-06T11:46:14.044Z,20.99
2023-05-06T11:48:40.464Z,20.86
2023-05-06T11:51:08.247Z,21.14
2023-05-06T11:53:34.753Z,21.49
2023-05-06T11:56:01.786Z,21.44
2023-05-06T11:58:29.317Z,21.36
2023-05-06T12:00:56.757Z,21.53
2023-05-06T12:03:25.014Z,21.66
2023-05-06T12:05:52.097Z,21.59
2023-05-06T12:08:28.070Z,21.44
2023-05-06T12:10:58.599Z,21.22
2023-05-06T12:13:25.252Z,21.21
2023-05-06T12:15:54.620Z,21.20
2023-05-06T12:18:21.967Z,21.24
2023-05-06T12:20:48.475Z,21.43
2023-05-06T12:23:16.062Z,21.58
2023-05-06T12:25:44.743Z,21.58
2023-05-06T12:28:18.814Z,21.50
2023-05-06T12:30:45.893Z,21.52
2023-05-06T12:33:13.011Z,21.76
2023-05-06T12:35:40.967Z,21.83
2023-05-06T12:38:15.420Z,22.19
2023-05-06T12:40:43.709Z,22.35
2023-05-06T12:43:11.221Z,22.46
2023-05-06T12:45:39.635Z,22.37
2023-05-06T12:48:07.165Z,22.43
2023-05-06T12:50:36.304Z,22.40
2023-05-06T12:53:04.240Z,22.53
2023-05-06T12:55:32.150Z,22.74
2023-05-06T12:57:58.690Z,22.74
2023-05-06T13:00:25.273Z,22.61
2023-05-06T13:02:52.071Z,22.53
2023-05-06T13:05:18.706Z,22.60
2023-05-06T13:07:45.207Z,22.38
2023-05-06T13:10:12.194Z,22.51
2023-05-06T13:12:39.177Z,22.68
2023-05-06T13:15:06.323Z,22.95
2023-05-06T13:17:32.919Z,23.19
2023-05-06T13:19:59.420Z,23.32
2023-05-06T13:22:25.934Z,23.73
2023-05-06T13:24:52.406Z,23.45
2023-05-06T13:27:18.869Z,23.42
2023-05-06T13:29:45.635Z,23.25
2023-05-06T13:32:12.057Z,22.63
2023-05-06T13:34:38.711Z,22.31
2023-05-06T13:37:05.463Z,22.67
2023-05-06T13:39:32.161Z,23.24
2023-05-06T13:41:59.648Z,23.35
2023-05-06T13:44:26.484Z,22.97
2023-05-06T13:46:53.160Z,22.69
2023-05-06T13:49:20.005Z,23.00
2023-05-06T13:51:46.475Z,23.23
2023-05-06T13:54:13.069Z,23.48
2023-05-06T13:56:39.596Z,23.67
2023-05-06T13:59:08.060Z,23.70
2023-05-06T14:01:35.202Z,23.14
2023-05-06T14:04:01.809Z,22.93
2023-05-06T14:06:29.278Z,23.37
2023-05-06T14:08:55.854Z,23.63
2023-05-06T14:11:22.532Z,23.99
2023-05-06T14:13:49.130Z,24.48
2023-05-06T14:16:16.795Z,24.69
2023-05-06T14:18:43.491Z,24.78
2023-05-06T14:21:09.910Z,24.88
2023-05-06T14:23:37.907Z,24.78
2023-05-06T14:26:04.491Z,24.77
2023-05-06T14:28:31.058Z,24.61
2023-05-06T14:30:58.157Z,24.00
2023-05-06T14:33:24.637Z,23.79
2023-05-06T14:35:52.827Z,23.82
2023-05-06T14:38:19.943Z,23.85
2023-05-06T14:40:46.737Z,24.01
2023-05-06T14:43:13.255Z,24.16
2023-05-06T14:45:39.744Z,23.83
2023-05-06T14:48:06.734Z,23.83
2023-05-06T14:50:33.491Z,23.85
2023-05-06T14:53:02.232Z,23.79
2023-05-06T14:55:29.970Z,23.75
2023-05-06T14:57:57.159Z,23.65
2023-05-06T15:00:23.767Z,23.49
2023-05-06T15:02:50.410Z,23.48
2023-05-06T15:05:17.093Z,23.50
2023-05-06T15:07:43.827Z,23.48
2023-05-06T15:10:10.616Z,23.44
2023-05-06T15:12:37.419Z,23.37
2023-05-06T15:15:05.138Z,23.25
2023-05-06T15:17:32.187Z,23.19
2023-05-06T15:19:58.730Z,23.13
2023-05-06T15:22:25.288Z,23.14
2023-05-06T15:24:51.962Z,23.10
2023-05-06T15:27:18.442Z,23.08
2023-05-06T15:29:44.906Z,23.19
2023-05-06T15:32:11.398Z,23.22
2023-05-06T15:34:38.030Z,23.15
2023-05-06T15:37:04.602Z,23.10
2023-05-06T15:39:38.813Z,23.09
2023-05-06T15:42:05.645Z,23.01
2023-05-06T15:44:33.760Z,22.77
2023-05-06T15:47:00.355Z,22.73
2023-05-06T15:49:49.346Z,22.84
2023-05-06T15:52:13.402Z,22.84
2023-05-06T15:54:40.957Z,22.90
2023-05-06T15:57:07.735Z,22.95
2023-05-06T15:59:35.131Z,22.92
2023-05-06T16:02:26.244Z,23.00
2023-05-06T16:04:48.396Z,23.06
2023-05-06T16:07:15.653Z,23.04
2023-05-06T16:09:42.900Z,22.93
2023-05-06T16:12:10.094Z,22.78
2023-05-06T16:14:36.634Z,22.78
2023-05-06T16:17:03.184Z,22.79
2023-05-06T16:19:32.062Z,22.72
2023-05-06T16:21:58.638Z,22.77
2023-05-06T16:24:25.148Z,22.77
2023-05-06T16:26:51.836Z,22.74
2023-05-06T16:29:20.543Z,22.69
2023-05-06T16:31:48.032Z,22.65
2023-05-06T16:34:15.173Z,22.63
2023-05-06T16:36:41.754Z,22.57
2023-05-06T16:39:08.506Z,22.56
2023-05-06T16:41:35.046Z,22.48
2023-05-06T16:44:01.968Z,22.43
2023-05-06T16:46:28.942Z,22.41
2023-05-06T16:48:55.911Z,22.35
2023-05-06T16:51:22.931Z,22.30
2023-05-06T16:53:49.441Z,22.27
2023-05-06T16:56:16.148Z,22.19
2023-05-06T16:58:42.994Z,22.01
2023-05-06T17:01:09.797Z,21.88
2023-05-06T17:03:40.309Z,21.85
2023-05-06T17:06:07.750Z,21.83
2023-05-06T17:08:36.455Z,21.78
2023-05-06T17:11:06.555Z,21.75
2023-05-06T17:13:33.494Z,21.66
2023-05-06T17:16:00.147Z,21.57
2023-05-06T17:18:26.772Z,21.49
2023-05-06T17:20:56.617Z,21.44
2023-05-06T17:23:24.085Z,21.43
2023-05-06T17:25:51.042Z,21.37
2023-05-06T17:28:18.666Z,21.34
2023-05-06T17:30:45.958Z,21.31
2023-05-06T17:33:12.712Z,21.26
2023-05-06T17:35:39.328Z,21.21
2023-05-06T17:38:05.895Z,21.14
2023-05-06T17:40:32.410Z,21.06
2023-05-06T17:42:59.002Z,21.01
2023-05-06T17:45:26.776Z,20.96
2023-05-06T17:47:53.613Z,20.90
2023-05-06T17:50:20.500Z,20.85
2023-05-06T17:52:50.687Z,20.74
2023-05-06T17:55:17.865Z,20.50
2023-05-06T17:57:44.639Z,20.14
2023-05-06T18:00:11.719Z,19.87
2023-05-06T18:02:38.447Z,19.58
2023-05-06T18:05:06.370Z,19.28
2023-05-06T18:07:33.029Z,18.99
2023-05-06T18:09:59.529Z,18.78
2023-05-06T18:12:26.168Z,18.63
2023-05-06T18:14:52.814Z,18.50
2023-05-06T18:17:19.247Z,18.26
2023-05-06T18:19:45.753Z,18.16
2023-05-06T18:22:12.314Z,18.05
2023-05-06T18:24:38.747Z,17.94
2023-05-06T18:27:05.353Z,17.80
2023-05-06T18:29:33.191Z,17.77
2023-05-06T18:32:00.323Z,17.68
2023-05-06T18:34:26.869Z,17.69
2023-05-06T18:36:53.889Z,17.66
2023-05-06T18:39:22.997Z,17.63
2023-05-06T18:41:49.412Z,17.58
2023-05-06T18:44:15.859Z,17.50
2023-05-06T18:46:42.304Z,17.47
2023-05-06T18:49:08.706Z,17.44
2023-05-06T18:51:35.291Z,17.43
2023-05-06T18:54:01.692Z,17.41
2023-05-06T18:56:28.213Z,17.45
2023-05-06T18:58:54.673Z,17.44
2023-05-06T19:01:21.497Z,17.48
2023-05-06T19:03:47.976Z,17.49
2023-05-06T19:06:14.535Z,17.49
2023-05-06T19:08:41.055Z,17.45
2023-05-06T19:11:14.459Z,17.43
2023-05-06T19:13:42.464Z,17.38
2023-05-06T19:16:09.161Z,17.32
2023-05-06T19:18:35.810Z,17.19
2023-05-06T19:21:02.637Z,17.02
2023-05-06T19:23:29.202Z,16.88
2023-05-06T19:25:55.720Z,16.84
2023-05-06T19:28:22.193Z,16.76
2023-05-06T19:30:48.692Z,16.78
2023-05-06T19:33:16.288Z,16.84
2023-05-06T19:35:42.809Z,16.81
2023-05-06T19:38:09.664Z,16.84
2023-05-06T19:40:36.217Z,16.87
2023-05-06T19:43:05.645Z,16.83
2023-05-06T19:45:33.334Z,16.78
2023-05-06T19:48:00.898Z,16.78
2023-05-06T19:50:28.359Z,16.78
2023-05-06T19:52:54.820Z,16.75
2023-05-06T19:55:22.081Z,16.70
2023-05-06T19:57:49.564Z,16.66
2023-05-06T20:00:18.221Z,16.58
2023-05-06T20:02:45.603Z,16.51
2023-05-06T20:05:12.554Z,16.51
2023-05-06T20:07:39.424Z,16.49
2023-05-06T20:10:06.551Z,16.53
2023-05-06T20:12:33.368Z,16.48
2023-05-06T20:14:59.905Z,16.42
2023-05-06T20:17:26.858Z,16.41
2023-05-06T20:19:54.363Z,16.32
2023-05-06T20:22:20.757Z,16.23
2023-05-06T20:24:47.216Z,16.21
2023-05-06T20:27:13.674Z,16.18
2023-05-06T20:29:40.776Z,16.16
2023-05-06T20:32:07.188Z,16.17
2023-05-06T20:34:33.769Z,16.19
2023-05-06T20:37:01.342Z,16.18
2023-05-06T20:39:27.827Z,16.13
2023-05-06T20:41:54.411Z,16.05
2023-05-06T20:44:20.902Z,15.99
2023-05-06T20:46:47.352Z,16.00
2023-05-06T20:49:13.883Z,15.92
2023-05-06T20:51:40.332Z,15.89
2023-05-06T20:54:07.134Z,15.89
2023-05-06T20:56:33.576Z,15.95
2023-05-06T20:59:00.084Z,15.90
2023-05-06T21:01:27.175Z,15.91
2023-05-06T21:03:53.870Z,15.94
2023-05-06T21:06:20.357Z,15.86
2023-05-06T21:08:47.025Z,15.88
2023-05-06T21:11:13.837Z,15.88
2023-05-06T21:13:40.926Z,15.87
2023-05-06T21:16:07.566Z,15.83
2023-05-06T21:18:34.193Z,15.76
2023-05-06T21:21:01.025Z,15.70
2023-05-06T21:23:27.560Z,15.72
2023-05-06T21:25:54.092Z,15.78
2023-05-06T21:28:20.493Z,15.74
2023-05-06T21:30:47.029Z,15.70
2023-05-06T21:33:13.525Z,15.76
2023-05-06T21:35:40.118Z,15.76
2023-05-06T21:38:06.664Z,15.76
2023-05-06T21:40:33.154Z,15.77
2023-05-06T21:42:59.776Z,15.70
2023-05-06T21:45:26.538Z,15.65
2023-05-06T21:47:53.182Z,15.52
2023-05-06T21:50:19.909Z,15.46
2023-05-06T21:52:46.345Z,15.46
2023-05-06T21:55:13.324Z,15.47
2023-05-06T21:57:39.929Z,15.46
2023-05-06T22:00:12.282Z,15.48
2023-05-06T22:02:40.117Z,15.48
2023-05-06T22:05:08.076Z,15.45
2023-05-06T22:07:35.757Z,15.46
2023-05-06T22:10:02.548Z,15.44
2023-05-06T22:12:29.002Z,15.42
2023-05-06T22:14:55.933Z,15.37
2023-05-06T22:17:22.421Z,15.39
2023-05-06T22:19:49.035Z,15.39
2023-05-06T22:22:16.019Z,15.39
2023-05-06T22:24:42.552Z,15.39
2023-05-06T22:27:08.965Z,15.37
2023-05-06T22:29:35.496Z,15.36
2023-05-06T22:32:02.311Z,15.34
2023-05-06T22:34:28.782Z,15.33
2023-05-06T22:36:57.597Z,15.31
2023-05-06T22:39:24.828Z,15.26
2023-05-06T22:41:51.352Z,15.26
2023-05-06T22:44:17.838Z,15.27
2023-05-06T22:46:44.352Z,15.24
2023-05-06T22:49:10.848Z,15.18
2023-05-06T22:51:37.342Z,15.16
2023-05-06T22:54:03.838Z,15.18
2023-05-06T22:56:30.325Z,15.19
2023-05-06T22:58:56.754Z,15.19
2023-05-06T23:01:25.196Z,15.16
2023-05-06T23:03:51.965Z,15.16
2023-05-06T23:06:18.620Z,15.14
2023-05-06T23:08:45.063Z,15.05
2023-05-06T23:11:11.559Z,14.98
2023-05-06T23:13:38.078Z,14.95
2023-05-06T23:16:05.207Z,14.93
2023-05-06T23:18:31.745Z,14.92
2023-05-06T23:20:58.196Z,14.95
2023-05-06T23:23:24.620Z,14.89
2023-05-06T23:25:51.236Z,14.90
2023-05-06T23:28:17.726Z,14.88
2023-05-06T23:30:44.217Z,14.88
2023-05-06T23:33:10.754Z,14.87
2023-05-06T23:35:37.368Z,14.87
2023-05-06T23:38:03.941Z,14.84
2023-05-06T23:40:30.526Z,14.80
2023-05-06T23:42:56.980Z,14.75
2023-05-06T23:45:25.646Z,14.67
2023-05-06T23:47:52.730Z,14.67
2023-05-06T23:50:20.005Z,14.66
2023-05-06T23:52:46.478Z,14.64
2023-05-06T23:55:13.301Z,14.63
2023-05-06T23:57:40.053Z,14.64
